Gilbert, Minnesota
Current Conditions -  °F | °C
As of 11:31 PM on Tuesday 25 Nov 2014 (Local Time) from KEVM Reporting Station
Overcast Overcast  
Wind Chill: 19°   Ceiling: 1800
Heat Index: 19°   Visibility: 10mi
Dew Point: 10°   Wind: 0mph
Humidity: 68%   Direction: NA
Pressure: 30.05"   Gusts: NA
Location:  47.49°N, 92.46°W
Report Text: KEVM 260531Z AUTO 00000KT 10SM OVC018 M07/M12 A3005 RMK AO2
Loading
Personal Weather Stations






























Interactive Weather Map New forecast layout! Learn more

10-Day Weather Forecast

Advertisements
Track Severe Weather on mobile